Time;durP1;ratioP1;P1;durP2;ratioP2;P2;SDS_P1;SDS_P2;PMS_P1;PMS_P2;Temp;Humidity;BMP_temperature;BMP_pressure;BME280_temperature;BME280_humidity;BME280_pressure;Samples;Min_cycle;Max_cycle;Signal;HPM_P1;HPM_P2
2023/04/01 00:00:11;;;;;;;6.28;2.85;;;;;;;;;;5021713;28;20214;-71
2023/04/01 00:02:36;;;;;;;5.20;2.28;;;;;;;;;;5027249;28;20619;-71
2023/04/01 00:05:02;;;;;;;4.75;2.30;;;;;;;;;;5029640;28;20190;-71
2023/04/01 00:07:27;;;;;;;4.97;2.35;;;;;;;;;;5031354;28;20624;-72
2023/04/01 00:09:52;;;;;;;4.63;2.42;;;;;;;;;;5031811;28;20191;-71
2023/04/01 00:12:18;;;;;;;4.18;2.38;;;;;;;;;;5028470;28;20264;-72
2023/04/01 00:14:43;;;;;;;4.15;2.50;;;;;;;;;;5029944;28;20486;-73
2023/04/01 00:17:09;;;;;;;5.18;2.53;;;;;;;;;;5029048;28;20604;-73
2023/04/01 00:19:34;;;;;;;4.30;2.42;;;;;;;;;;5020641;28;20197;-73
2023/04/01 00:21:59;;;;;;;5.25;2.75;;;;;;;;;;5026836;28;20309;-72
2023/04/01 00:24:25;;;;;;;3.85;2.58;;;;;;;;;;5015652;28;20179;-73
2023/04/01 00:26:50;;;;;;;3.10;2.60;;;;;;;;;;5021579;28;20198;-72
2023/04/01 00:29:16;;;;;;;6.60;2.40;;;;;;;;;;5038462;28;20733;-73
2023/04/01 00:31:41;;;;;;;4.97;2.50;;;;;;;;;;5030177;28;20248;-73
2023/04/01 00:34:07;;;;;;;4.97;2.50;;;;;;;;;;5030740;28;20198;-72
2023/04/01 00:36:32;;;;;;;6.32;2.70;;;;;;;;;;5034538;28;20240;-73
2023/04/01 00:38:59;;;;;;;6.25;2.92;;;;;;;;;;5016233;28;20194;-72
2023/04/01 00:41:26;;;;;;;8.05;2.90;;;;;;;;;;5013590;28;20199;-72
2023/04/01 00:43:52;;;;;;;5.88;3.00;;;;;;;;;;5028761;28;20251;-74
2023/04/01 00:46:18;;;;;;;6.63;2.72;;;;;;;;;;5028312;28;20187;-71
2023/04/01 00:48:55;;;;;;;5.70;2.83;;;;;;;;;;5019313;28;20179;-72
2023/04/01 00:51:24;;;;;;;4.47;2.65;;;;;;;;;;5030550;28;20190;-72
2023/04/01 00:53:52;;;;;;;5.82;2.65;;;;;;;;;;5037548;28;20221;-72
2023/04/01 00:56:40;;;;;;;8.45;3.10;;;;;;;;;;5031395;28;20629;-73
2023/04/01 00:59:15;;;;;;;9.55;2.88;;;;;;;;;;5023157;28;20202;-73
2023/04/01 01:01:40;;;;;;;6.35;2.85;;;;;;;;;;5017141;28;20588;-72
2023/04/01 01:04:06;;;;;;;5.13;2.70;;;;;;;;;;5025949;28;20205;-74
2023/04/01 01:06:46;;;;;;;6.60;3.05;;;;;;;;;;5009634;28;20621;-72
2023/04/01 01:09:41;;;;;;;5.05;2.72;;;;;;;;;;5015899;28;20198;-73
2023/04/01 01:12:12;;;;;;;8.02;3.17;;;;;;;;;;5033996;28;20191;-72
2023/04/01 01:15:08;;;;;;;3.60;2.22;;;;;;;;;;5033901;28;20220;-74
2023/04/01 01:17:51;;;;;;;5.18;2.72;;;;;;;;;;5021608;28;20495;-72
2023/04/01 01:20:37;;;;;;;5.15;2.83;;;;;;;;;;5018380;28;20182;-73
2023/04/01 01:23:29;;;;;;;6.68;2.50;;;;;;;;;;5023521;28;20198;-72
2023/04/01 01:26:29;;;;;;;4.47;2.50;;;;;;;;;;5019358;28;20224;-72
2023/04/01 01:29:31;;;;;;;4.97;3.10;;;;;;;;;;5019032;28;20293;-71
2023/04/01 01:32:05;;;;;;;3.80;2.75;;;;;;;;;;5028593;28;20190;-72
2023/04/01 01:35:02;;;;;;;4.10;2.70;;;;;;;;;;5024671;28;20478;-73
2023/04/01 01:37:30;;;;;;;4.38;2.53;;;;;;;;;;5018962;28;20191;-73
2023/04/01 01:40:01;;;;;;;5.82;2.90;;;;;;;;;;5024264;28;20604;-73
2023/04/01 01:42:28;;;;;;;6.30;3.28;;;;;;;;;;5023069;28;20241;-73
2023/04/01 01:44:56;;;;;;;4.93;3.30;;;;;;;;;;5022755;28;20190;-74
2023/04/01 01:47:22;;;;;;;7.00;2.78;;;;;;;;;;5015703;28;20205;-73
2023/04/01 01:49:49;;;;;;;6.38;2.85;;;;;;;;;;5022093;28;20175;-72
2023/04/01 01:52:16;;;;;;;5.45;2.88;;;;;;;;;;5026521;28;20190;-69
2023/04/01 01:54:53;;;;;;;4.43;3.30;;;;;;;;;;5023662;28;20205;-70
2023/04/01 01:57:25;;;;;;;4.38;2.83;;;;;;;;;;5022436;28;20602;-71
2023/04/01 01:59:55;;;;;;;5.40;3.40;;;;;;;;;;5014418;28;20210;-71
2023/04/01 02:02:22;;;;;;;6.70;3.28;;;;;;;;;;5018705;28;20688;-71
2023/04/01 02:04:49;;;;;;;5.82;3.50;;;;;;;;;;5010368;28;20179;-71
2023/04/01 02:07:20;;;;;;;4.45;3.28;;;;;;;;;;5022432;28;20190;-71
2023/04/01 02:09:45;;;;;;;6.38;3.75;;;;;;;;;;5028524;28;20703;-71
2023/04/01 02:12:14;;;;;;;6.57;3.90;;;;;;;;;;5031924;28;20194;-71
2023/04/01 02:14:57;;;;;;;7.47;4.22;;;;;;;;;;5011685;28;20596;-71
2023/04/01 02:17:35;;;;;;;8.75;4.57;;;;;;;;;;5025941;28;20190;-71
2023/04/01 02:20:17;;;;;;;7.68;4.50;;;;;;;;;;5028426;28;20190;-71
2023/04/01 02:22:51;;;;;;;5.03;4.00;;;;;;;;;;5018310;28;20197;-71
2023/04/01 02:25:28;;;;;;;7.97;4.80;;;;;;;;;;5014844;28;20237;-71
2023/04/01 02:27:56;;;;;;;4.90;4.10;;;;;;;;;;5012082;28;20213;-71
2023/04/01 02:30:23;;;;;;;6.72;4.68;;;;;;;;;;5036561;28;20222;-70
2023/04/01 02:32:49;;;;;;;7.75;4.43;;;;;;;;;;5017472;28;20183;-70
2023/04/01 02:35:16;;;;;;;9.00;5.50;;;;;;;;;;5013597;28;20269;-70
2023/04/01 02:37:43;;;;;;;8.10;4.72;;;;;;;;;;5026985;28;20700;-70
2023/04/01 02:40:11;;;;;;;7.60;5.15;;;;;;;;;;5018328;28;20211;-70
2023/04/01 02:42:36;;;;;;;8.45;5.20;;;;;;;;;;5022937;28;20186;-70
2023/04/01 02:45:02;;;;;;;9.50;5.45;;;;;;;;;;5027732;28;20209;-70
2023/04/01 02:47:27;;;;;;;7.70;5.00;;;;;;;;;;5026236;28;20479;-70
2023/04/01 02:49:57;;;;;;;7.78;5.18;;;;;;;;;;5014236;28;20198;-70
2023/04/01 02:52:27;;;;;;;9.88;6.05;;;;;;;;;;5026625;28;20550;-70
2023/04/01 02:54:53;;;;;;;8.75;5.63;;;;;;;;;;5024488;28;20203;-69
2023/04/01 02:57:18;;;;;;;10.02;6.05;;;;;;;;;;5019916;28;20213;-69
2023/04/01 02:59:44;;;;;;;7.20;5.70;;;;;;;;;;5026576;28;20269;-70
2023/04/01 03:02:09;;;;;;;9.32;6.45;;;;;;;;;;5014484;28;20283;-69
2023/04/01 03:04:35;;;;;;;10.95;7.13;;;;;;;;;;5035718;28;20186;-70
2023/04/01 03:07:00;;;;;;;10.18;6.85;;;;;;;;;;5023099;28;20273;-70
2023/04/01 03:09:26;;;;;;;9.27;6.28;;;;;;;;;;5020482;28;20186;-71
2023/04/01 03:11:51;;;;;;;7.85;6.00;;;;;;;;;;5019293;28;20236;-71
2023/04/01 03:14:17;;;;;;;9.30;6.22;;;;;;;;;;5020180;28;20210;-70
2023/04/01 03:16:42;;;;;;;11.02;6.55;;;;;;;;;;5022499;28;20205;-70
2023/04/01 03:19:07;;;;;;;10.50;7.38;;;;;;;;;;5014640;28;20583;-70
2023/04/01 03:21:33;;;;;;;14.15;7.00;;;;;;;;;;5027130;28;20201;-70
2023/04/01 03:23:58;;;;;;;9.02;6.47;;;;;;;;;;5025950;28;20297;-71
2023/04/01 03:26:24;;;;;;;13.65;7.85;;;;;;;;;;5014913;28;20187;-71
2023/04/01 03:28:49;;;;;;;9.88;7.43;;;;;;;;;;5021126;28;20245;-71
2023/04/01 03:31:15;;;;;;;13.57;7.65;;;;;;;;;;5023920;28;20280;-71
2023/04/01 03:33:41;;;;;;;15.27;8.85;;;;;;;;;;5022989;28;20705;-70
2023/04/01 03:36:07;;;;;;;12.77;9.15;;;;;;;;;;5016921;28;20209;-70
2023/04/01 03:38:35;;;;;;;14.75;9.48;;;;;;;;;;5022767;28;20191;-70
2023/04/01 03:41:01;;;;;;;12.98;7.95;;;;;;;;;;5012108;28;20240;-70
2023/04/01 03:43:26;;;;;;;12.10;8.10;;;;;;;;;;5013244;28;20587;-70
2023/04/01 03:45:52;;;;;;;13.13;8.85;;;;;;;;;;5028419;28;20190;-70
2023/04/01 03:48:18;;;;;;;17.02;8.80;;;;;;;;;;5023295;28;20570;-70
2023/04/01 03:50:44;;;;;;;12.88;8.98;;;;;;;;;;5024433;28;20217;-70
2023/04/01 03:53:10;;;;;;;12.77;8.77;;;;;;;;;;5028217;28;20545;-70
2023/04/01 03:55:36;;;;;;;13.05;8.30;;;;;;;;;;5013647;28;20201;-70
2023/04/01 03:58:03;;;;;;;14.07;9.00;;;;;;;;;;5023510;28;20673;-71
2023/04/01 04:00:29;;;;;;;13.55;8.98;;;;;;;;;;5019676;28;20647;-71
2023/04/01 04:02:56;;;;;;;12.40;8.00;;;;;;;;;;5020626;28;20202;-71
2023/04/01 04:05:22;;;;;;;12.50;8.80;;;;;;;;;;5025138;28;20189;-71
2023/04/01 04:07:47;;;;;;;13.60;7.85;;;;;;;;;;5027238;28;20189;-71
2023/04/01 04:10:13;;;;;;;12.32;8.50;;;;;;;;;;5027714;28;20305;-71
2023/04/01 04:12:40;;;;;;;13.63;8.65;;;;;;;;;;5023361;28;20205;-71
2023/04/01 04:15:06;;;;;;;14.70;9.00;;;;;;;;;;5013825;28;20514;-71
2023/04/01 04:17:31;;;;;;;13.63;8.90;;;;;;;;;;5020132;28;20547;-71
2023/04/01 04:19:56;;;;;;;13.23;9.25;;;;;;;;;;5015579;28;20201;-71
2023/04/01 04:22:22;;;;;;;14.98;8.85;;;;;;;;;;5032019;28;20506;-71
2023/04/01 04:24:47;;;;;;;18.42;9.88;;;;;;;;;;5025462;28;20190;-71
2023/04/01 04:27:12;;;;;;;14.77;8.10;;;;;;;;;;5016186;28;20240;-71
2023/04/01 04:29:38;;;;;;;15.55;9.05;;;;;;;;;;5026873;28;20900;-71
2023/04/01 04:32:04;;;;;;;16.17;9.38;;;;;;;;;;5013918;28;20252;-71
2023/04/01 04:34:29;;;;;;;16.67;9.98;;;;;;;;;;5026934;28;20182;-72
2023/04/01 04:36:54;;;;;;;13.05;8.50;;;;;;;;;;5026881;28;20186;-70
2023/04/01 04:39:20;;;;;;;17.90;8.55;;;;;;;;;;5018023;28;20195;-70
2023/04/01 04:41:45;;;;;;;11.88;7.90;;;;;;;;;;5021390;28;20236;-70
2023/04/01 04:44:10;;;;;;;14.30;7.43;;;;;;;;;;5023516;28;20282;-70
2023/04/01 04:46:38;;;;;;;15.18;7.40;;;;;;;;;;5012440;28;20191;-70
2023/04/01 04:49:04;;;;;;;15.93;7.88;;;;;;;;;;5029305;28;20581;-70
2023/04/01 04:51:30;;;;;;;12.30;7.60;;;;;;;;;;5030098;28;20182;-70
2023/04/01 04:53:55;;;;;;;14.70;7.20;;;;;;;;;;5029610;28;20190;-71
2023/04/01 04:56:22;;;;;;;14.98;8.15;;;;;;;;;;5019937;28;20215;-70
2023/04/01 04:58:48;;;;;;;12.35;8.13;;;;;;;;;;5024261;28;20595;-71
2023/04/01 05:01:15;;;;;;;11.68;8.00;;;;;;;;;;5011634;28;20214;-71
2023/04/01 05:03:41;;;;;;;16.35;8.05;;;;;;;;;;5026331;28;20265;-70
2023/04/01 05:06:08;;;;;;;18.90;8.50;;;;;;;;;;5029155;28;20268;-70
2023/04/01 05:08:34;;;;;;;15.32;8.40;;;;;;;;;;5014137;28;20187;-70
2023/04/01 05:11:01;;;;;;;16.70;8.73;;;;;;;;;;5021952;28;20544;-70
2023/04/01 05:13:26;;;;;;;16.27;9.82;;;;;;;;;;5020533;28;20209;-71
2023/04/01 05:15:52;;;;;;;12.48;7.97;;;;;;;;;;5022874;28;20202;-71
2023/04/01 05:18:17;;;;;;;15.65;10.38;;;;;;;;;;5027243;28;20268;-71
2023/04/01 05:20:54;;;;;;;17.67;9.30;;;;;;;;;;5016525;28;20650;-71
2023/04/01 05:23:23;;;;;;;11.82;8.10;;;;;;;;;;5027117;28;20276;-71
2023/04/01 05:25:49;;;;;;;11.07;6.93;;;;;;;;;;5028157;28;20183;-72
2023/04/01 05:28:15;;;;;;;11.57;6.90;;;;;;;;;;5017968;28;20562;-71
2023/04/01 05:30:42;;;;;;;12.15;7.00;;;;;;;;;;5019201;28;20178;-72
2023/04/01 05:33:09;;;;;;;16.77;7.20;;;;;;;;;;5026733;28;20182;-71
2023/04/01 05:35:35;;;;;;;11.93;7.25;;;;;;;;;;5024737;28;20282;-71
2023/04/01 05:38:00;;;;;;;13.18;7.38;;;;;;;;;;5023753;28;20634;-71
2023/04/01 05:40:27;;;;;;;12.07;7.28;;;;;;;;;;5016343;28;20256;-71
2023/04/01 05:42:52;;;;;;;12.57;7.93;;;;;;;;;;5014573;28;20205;-71
2023/04/01 05:45:17;;;;;;;11.60;7.65;;;;;;;;;;5021379;28;20171;-71
2023/04/01 05:47:43;;;;;;;10.68;6.75;;;;;;;;;;5019167;28;20655;-71
2023/04/01 05:50:10;;;;;;;15.02;7.82;;;;;;;;;;5013976;28;20187;-71
2023/04/01 05:52:36;;;;;;;15.07;7.72;;;;;;;;;;5023895;28;20179;-71
2023/04/01 05:55:01;;;;;;;15.48;7.63;;;;;;;;;;5028430;28;20282;-71
2023/04/01 05:57:27;;;;;;;13.30;6.95;;;;;;;;;;5027735;28;20192;-70
2023/04/01 05:59:52;;;;;;;11.60;6.90;;;;;;;;;;5022953;28;20198;-70
2023/04/01 06:02:18;;;;;;;12.15;7.07;;;;;;;;;;5015651;28;20276;-70
2023/04/01 06:04:44;;;;;;;13.27;7.53;;;;;;;;;;5021235;28;20192;-71
2023/04/01 06:07:18;;;;;;;13.93;7.30;;;;;;;;;;5010009;28;20297;-71
2023/04/01 06:09:45;;;;;;;10.10;6.50;;;;;;;;;;5010929;28;20182;-71
2023/04/01 06:12:28;;;;;;;9.68;6.05;;;;;;;;;;5014135;28;20197;-71
2023/04/01 06:15:15;;;;;;;9.48;6.15;;;;;;;;;;5025235;28;20577;-71
2023/04/01 06:18:20;;;;;;;10.32;6.30;;;;;;;;;;5021716;28;20721;-71
2023/04/01 06:21:13;;;;;;;8.85;5.97;;;;;;;;;;5023149;28;20261;-71
2023/04/01 06:24:13;;;;;;;14.57;7.18;;;;;;;;;;5020181;28;20221;-71
2023/04/01 06:27:09;;;;;;;10.60;5.82;;;;;;;;;;5021495;28;20193;-70
2023/04/01 06:30:32;;;;;;;9.55;6.22;;;;;;;;;;5010080;28;20225;-69
2023/04/01 06:33:28;;;;;;;12.98;5.32;;;;;;;;;;5016044;28;20642;-70
2023/04/01 06:36:23;;;;;;;7.68;5.47;;;;;;;;;;5015427;28;20217;-70
2023/04/01 06:39:26;;;;;;;6.78;5.07;;;;;;;;;;5027233;28;20343;-70
2023/04/01 06:42:15;;;;;;;6.72;4.90;;;;;;;;;;5012910;28;20722;-69
2023/04/01 06:44:53;;;;;;;8.95;5.70;;;;;;;;;;5021385;28;20190;-70
2023/04/01 06:47:42;;;;;;;7.90;4.95;;;;;;;;;;5024419;28;20237;-70
2023/04/01 06:50:26;;;;;;;6.70;5.00;;;;;;;;;;5023727;28;20193;-70
2023/04/01 06:53:03;;;;;;;7.22;5.13;;;;;;;;;;5024992;28;20201;-70
2023/04/01 06:55:41;;;;;;;7.57;5.47;;;;;;;;;;5028797;28;20198;-70
2023/04/01 06:58:20;;;;;;;7.80;5.07;;;;;;;;;;5014617;28;20212;-70
2023/04/01 07:00:50;;;;;;;7.45;5.30;;;;;;;;;;5018729;28;20215;-70
2023/04/01 07:03:35;;;;;;;8.32;5.63;;;;;;;;;;5011305;28;20227;-70
2023/04/01 07:06:05;;;;;;;6.93;5.22;;;;;;;;;;5025005;28;20641;-70
2023/04/01 07:08:34;;;;;;;9.00;4.97;;;;;;;;;;5022467;28;20237;-70
2023/04/01 07:11:04;;;;;;;5.82;4.32;;;;;;;;;;5021822;28;20190;-70
2023/04/01 07:13:48;;;;;;;5.05;4.03;;;;;;;;;;5016144;28;20229;-71
2023/04/01 07:16:29;;;;;;;6.20;4.45;;;;;;;;;;5013666;28;20237;-70
2023/04/01 07:19:17;;;;;;;5.47;4.60;;;;;;;;;;5022789;28;20318;-71
2023/04/01 07:21:52;;;;;;;7.47;4.40;;;;;;;;;;5028644;28;20232;-71
2023/04/01 07:24:25;;;;;;;6.55;4.70;;;;;;;;;;5021250;28;20213;-71
2023/04/01 07:26:55;;;;;;;6.38;4.40;;;;;;;;;;5014547;28;20189;-71
2023/04/01 07:29:20;;;;;;;4.93;4.00;;;;;;;;;;5013383;28;20587;-71
2023/04/01 07:32:09;;;;;;;6.68;3.30;;;;;;;;;;5015911;28;20201;-72
2023/04/01 07:35:09;;;;;;;5.35;3.20;;;;;;;;;;5019239;28;20198;-72
2023/04/01 07:37:43;;;;;;;5.00;3.33;;;;;;;;;;5021417;28;20194;-72
2023/04/01 07:40:15;;;;;;;4.78;2.90;;;;;;;;;;5011994;28;20204;-72
2023/04/01 07:43:11;;;;;;;4.57;3.55;;;;;;;;;;5016500;28;20271;-72
2023/04/01 07:45:48;;;;;;;4.70;3.60;;;;;;;;;;5035056;28;20274;-72
2023/04/01 07:48:31;;;;;;;5.72;3.55;;;;;;;;;;5023934;28;20190;-73
2023/04/01 07:51:29;;;;;;;4.47;3.28;;;;;;;;;;5017531;28;20190;-73
2023/04/01 07:54:03;;;;;;;5.20;3.60;;;;;;;;;;5021701;28;20302;-73
2023/04/01 07:56:47;;;;;;;7.97;3.65;;;;;;;;;;5020976;28;20700;-72
2023/04/01 07:59:24;;;;;;;3.53;2.83;;;;;;;;;;5014881;28;20232;-72
2023/04/01 08:02:12;;;;;;;4.13;3.05;;;;;;;;;;5020984;28;20208;-72
2023/04/01 08:05:00;;;;;;;4.80;2.97;;;;;;;;;;5021762;28;20256;-72
2023/04/01 08:07:38;;;;;;;5.38;3.05;;;;;;;;;;5020661;28;20186;-71
2023/04/01 08:10:11;;;;;;;5.05;2.95;;;;;;;;;;5012408;28;20197;-72
2023/04/01 08:13:08;;;;;;;7.28;3.35;;;;;;;;;;5019469;28;20190;-72
2023/04/01 08:15:55;;;;;;;4.03;3.28;;;;;;;;;;5012569;28;20199;-72
2023/04/01 08:18:39;;;;;;;3.58;2.30;;;;;;;;;;5026697;28;20241;-71
2023/04/01 08:21:44;;;;;;;4.32;2.92;;;;;;;;;;5022768;28;20198;-71
2023/04/01 08:24:34;;;;;;;4.70;3.38;;;;;;;;;;5008146;28;20713;-71
2023/04/01 08:27:05;;;;;;;4.60;3.20;;;;;;;;;;5010625;28;20207;-71
2023/04/01 08:30:06;;;;;;;5.78;3.30;;;;;;;;;;5023468;28;20337;-71
2023/04/01 08:32:38;;;;;;;3.63;2.85;;;;;;;;;;5001357;28;20567;-71
2023/04/01 08:35:15;;;;;;;3.30;2.55;;;;;;;;;;5028239;28;20206;-70
2023/04/01 08:37:43;;;;;;;3.42;2.80;;;;;;;;;;5030690;28;20209;-70
2023/04/01 08:40:20;;;;;;;3.95;2.92;;;;;;;;;;5026119;28;20195;-70
2023/04/01 08:43:06;;;;;;;4.18;3.05;;;;;;;;;;5021024;28;20193;-70
2023/04/01 08:45:56;;;;;;;3.58;3.05;;;;;;;;;;5019313;28;20179;-70
2023/04/01 08:49:00;;;;;;;7.80;3.20;;;;;;;;;;5013584;28;20203;-71
2023/04/01 08:51:46;;;;;;;4.18;3.28;;;;;;;;;;5011246;28;20198;-69
2023/04/01 08:54:29;;;;;;;3.83;2.70;;;;;;;;;;5027291;28;20198;-69
2023/04/01 08:57:26;;;;;;;3.25;2.67;;;;;;;;;;5014772;28;20682;-70
2023/04/01 09:00:15;;;;;;;4.10;2.58;;;;;;;;;;4999268;28;20217;-69
2023/04/01 09:02:55;;;;;;;5.22;3.03;;;;;;;;;;5021048;28;20196;-69
2023/04/01 09:05:42;;;;;;;4.57;2.78;;;;;;;;;;5011687;28;20313;-69
2023/04/01 09:08:24;;;;;;;4.05;2.60;;;;;;;;;;5015787;28;20198;-69
2023/04/01 09:11:16;;;;;;;2.58;1.95;;;;;;;;;;5017621;28;20228;-70
2023/04/01 09:14:26;;;;;;;2.53;2.13;;;;;;;;;;5011789;28;20194;-69
2023/04/01 09:17:14;;;;;;;3.05;2.03;;;;;;;;;;5007280;28;20622;-70
2023/04/01 09:19:48;;;;;;;3.20;2.65;;;;;;;;;;5016732;28;20193;-70
2023/04/01 09:22:34;;;;;;;4.93;3.10;;;;;;;;;;5012168;28;20264;-70
2023/04/01 09:25:38;;;;;;;3.25;2.67;;;;;;;;;;5018913;28;20606;-70
2023/04/01 09:28:09;;;;;;;4.18;2.80;;;;;;;;;;5020808;28;20372;-69
2023/04/01 09:31:00;;;;;;;4.65;2.17;;;;;;;;;;5013656;28;20183;-69
2023/04/01 09:33:41;;;;;;;3.55;2.50;;;;;;;;;;5020430;28;20547;-69
2023/04/01 09:36:31;;;;;;;2.88;2.25;;;;;;;;;;5027490;28;20252;-70
2023/04/01 09:38:59;;;;;;;3.67;2.40;;;;;;;;;;5020890;28;20187;-69
2023/04/01 09:41:45;;;;;;;2.80;2.10;;;;;;;;;;5032280;28;20247;-69
2023/04/01 09:44:46;;;;;;;3.45;2.47;;;;;;;;;;5035158;28;20198;-70
2023/04/01 09:47:38;;;;;;;2.35;2.10;;;;;;;;;;5003269;28;20222;-69
2023/04/01 09:50:24;;;;;;;2.17;1.92;;;;;;;;;;5026646;28;20221;-69
2023/04/01 09:53:07;;;;;;;2.70;1.75;;;;;;;;;;5026578;28;20268;-69
2023/04/01 09:55:57;;;;;;;4.40;1.65;;;;;;;;;;5024457;28;20210;-69
2023/04/01 09:58:45;;;;;;;1.83;1.33;;;;;;;;;;5019086;28;20247;-69
2023/04/01 10:01:39;;;;;;;2.35;1.40;;;;;;;;;;5023900;28;20618;-69
2023/04/01 10:04:46;;;;;;;1.40;1.30;;;;;;;;;;5014378;28;20674;-69
2023/04/01 10:07:52;;;;;;;1.95;1.30;;;;;;;;;;5011158;28;20209;-69
2023/04/01 10:10:24;;;;;;;1.50;1.38;;;;;;;;;;5012314;28;20611;-69
2023/04/01 10:13:22;;;;;;;1.30;1.20;;;;;;;;;;5019996;28;20541;-69
2023/04/01 10:16:28;;;;;;;2.08;1.50;;;;;;;;;;5011525;28;20238;-68
2023/04/01 10:19:20;;;;;;;1.60;1.23;;;;;;;;;;5009818;28;20344;-69
2023/04/01 10:22:11;;;;;;;2.20;1.55;;;;;;;;;;5019076;28;20201;-69
2023/04/01 10:24:55;;;;;;;1.50;1.40;;;;;;;;;;5018405;28;20186;-69
2023/04/01 10:27:43;;;;;;;1.42;1.30;;;;;;;;;;5013087;28;20188;-69
2023/04/01 10:30:34;;;;;;;1.42;1.33;;;;;;;;;;5024035;28;20531;-69
2023/04/01 10:33:00;;;;;;;1.83;1.42;;;;;;;;;;5022287;28;20190;-69
2023/04/01 10:35:59;;;;;;;1.25;1.15;;;;;;;;;;5019097;28;20689;-69
2023/04/01 10:38:55;;;;;;;1.60;1.50;;;;;;;;;;5028906;28;20194;-68
2023/04/01 10:41:42;;;;;;;2.40;1.52;;;;;;;;;;5016549;28;20186;-69
2023/04/01 10:44:45;;;;;;;3.13;1.60;;;;;;;;;;5016695;28;20225;-69
2023/04/01 10:47:23;;;;;;;1.80;1.60;;;;;;;;;;5006254;28;20194;-68
2023/04/01 10:50:13;;;;;;;3.47;2.88;;;;;;;;;;5021824;28;20194;-68
2023/04/01 10:52:49;;;;;;;3.78;2.92;;;;;;;;;;5015449;28;20285;-69
2023/04/01 10:55:45;;;;;;;3.05;2.50;;;;;;;;;;5028430;28;20215;-68
2023/04/01 10:58:54;;;;;;;2.50;2.20;;;;;;;;;;5015326;28;20245;-69
2023/04/01 11:01:49;;;;;;;1.65;1.42;;;;;;;;;;5011988;28;20216;-68
2023/04/01 11:04:51;;;;;;;2.47;1.80;;;;;;;;;;5015517;28;20183;-69
2023/04/01 11:07:52;;;;;;;2.45;1.88;;;;;;;;;;5017854;28;20468;-68
2023/04/01 11:10:26;;;;;;;2.05;1.50;;;;;;;;;;5008576;28;20207;-68
2023/04/01 11:13:21;;;;;;;2.20;2.00;;;;;;;;;;5016546;28;20316;-68
2023/04/01 11:16:32;;;;;;;2.00;1.70;;;;;;;;;;5013359;28;20271;-69
2023/04/01 11:19:11;;;;;;;2.63;2.35;;;;;;;;;;4995987;28;20210;-69
2023/04/01 11:21:54;;;;;;;3.00;2.47;;;;;;;;;;5021037;28;20194;-68
2023/04/01 11:24:34;;;;;;;3.45;3.05;;;;;;;;;;5015199;28;20183;-69
2023/04/01 11:27:30;;;;;;;2.72;2.38;;;;;;;;;;5012845;28;20200;-68
2023/04/01 11:30:05;;;;;;;3.20;2.60;;;;;;;;;;5027519;28;20222;-68
2023/04/01 11:33:12;;;;;;;3.42;2.67;;;;;;;;;;5023571;28;20264;-69
2023/04/01 11:35:50;;;;;;;3.58;2.65;;;;;;;;;;5024393;28;20570;-68
2023/04/01 11:38:27;;;;;;;3.03;2.72;;;;;;;;;;5011079;28;20221;-69
2023/04/01 11:41:02;;;;;;;2.42;2.10;;;;;;;;;;5017979;28;20269;-69
2023/04/01 11:43:57;;;;;;;1.83;1.70;;;;;;;;;;5014400;28;20191;-69
2023/04/01 11:46:37;;;;;;;1.95;1.75;;;;;;;;;;5011441;28;20198;-69
2023/04/01 11:49:33;;;;;;;2.05;1.85;;;;;;;;;;5008791;28;20321;-69
2023/04/01 11:52:35;;;;;;;2.05;1.83;;;;;;;;;;5040141;28;20185;-69
2023/04/01 11:55:47;;;;;;;1.30;1.20;;;;;;;;;;5017407;28;20331;-69
2023/04/01 11:58:54;;;;;;;0.90;0.85;;;;;;;;;;4994422;28;20760;-69
2023/04/01 12:01:54;;;;;;;1.15;0.63;;;;;;;;;;5008267;28;20755;-69
2023/04/01 12:04:55;;;;;;;1.27;1.00;;;;;;;;;;5034093;28;20174;-70
2023/04/01 12:07:49;;;;;;;1.00;0.90;;;;;;;;;;5032327;28;20627;-70
2023/04/01 12:10:21;;;;;;;1.00;1.00;;;;;;;;;;5021696;28;20224;-69
2023/04/01 12:13:10;;;;;;;1.30;1.20;;;;;;;;;;5023699;28;20256;-69
2023/04/01 12:15:41;;;;;;;1.20;1.10;;;;;;;;;;5021624;28;20238;-69
2023/04/01 12:18:17;;;;;;;1.45;1.35;;;;;;;;;;5018485;28;20190;-69
2023/04/01 12:20:58;;;;;;;1.70;1.60;;;;;;;;;;5021517;28;20189;-69
2023/04/01 12:23:43;;;;;;;2.13;1.92;;;;;;;;;;5027802;28;20645;-70
2023/04/01 12:26:17;;;;;;;3.15;1.75;;;;;;;;;;5030599;28;20273;-69
2023/04/01 12:29:24;;;;;;;1.88;1.75;;;;;;;;;;5013075;28;20260;-70
2023/04/01 12:31:52;;;;;;;1.92;1.60;;;;;;;;;;4985841;28;20218;-69
2023/04/01 12:34:45;;;;;;;1.50;1.40;;;;;;;;;;5014068;28;20248;-70
2023/04/01 12:37:25;;;;;;;1.77;1.30;;;;;;;;;;5027536;28;20284;-71
2023/04/01 12:40:08;;;;;;;1.15;1.05;;;;;;;;;;5029052;28;20183;-70
2023/04/01 12:42:44;;;;;;;1.60;1.50;;;;;;;;;;5018512;28;20186;-70
2023/04/01 12:45:28;;;;;;;1.60;1.50;;;;;;;;;;5022914;28;20202;-70
2023/04/01 12:48:08;;;;;;;1.50;1.40;;;;;;;;;;5025158;28;20276;-70
2023/04/01 12:51:01;;;;;;;2.00;1.88;;;;;;;;;;5025430;28;20201;-68
2023/04/01 12:53:55;;;;;;;2.00;1.50;;;;;;;;;;5019482;28;20186;-71
2023/04/01 12:56:59;;;;;;;1.33;1.00;;;;;;;;;;5021958;28;20210;-70
2023/04/01 12:59:43;;;;;;;0.98;0.77;;;;;;;;;;5019465;28;20700;-70
2023/04/01 13:02:31;;;;;;;1.80;0.50;;;;;;;;;;5025387;28;20195;-70
2023/04/01 13:05:15;;;;;;;1.50;0.82;;;;;;;;;;5016549;28;20195;-70
2023/04/01 13:07:50;;;;;;;3.03;0.77;;;;;;;;;;5021544;28;20190;-71
2023/04/01 13:10:28;;;;;;;2.03;1.25;;;;;;;;;;5021265;28;20205;-69
2023/04/01 13:13:00;;;;;;;1.30;1.20;;;;;;;;;;5025439;28;20726;-69
2023/04/01 13:16:19;;;;;;;1.48;0.98;;;;;;;;;;5018246;28;20213;-71
2023/04/01 13:18:58;;;;;;;1.73;1.10;;;;;;;;;;5003736;28;20658;-70
2023/04/01 13:21:42;;;;;;;1.10;1.00;;;;;;;;;;5007854;28;20638;-69
2023/04/01 13:24:13;;;;;;;1.70;1.60;;;;;;;;;;5013091;28;20205;-71
2023/04/01 13:27:00;;;;;;;2.65;2.33;;;;;;;;;;5029119;28;20281;-71
2023/04/01 13:29:35;;;;;;;3.33;2.72;;;;;;;;;;5016629;28;20586;-70
2023/04/01 13:32:19;;;;;;;3.92;3.50;;;;;;;;;;5026506;28;20498;-71
2023/04/01 13:35:24;;;;;;;5.03;3.97;;;;;;;;;;5021928;28;20199;-71
2023/04/01 13:38:24;;;;;;;4.15;3.70;;;;;;;;;;5009915;28;20198;-71
2023/04/01 13:41:08;;;;;;;4.20;3.75;;;;;;;;;;5019252;28;20193;-71
2023/04/01 13:43:45;;;;;;;4.03;3.42;;;;;;;;;;5022356;28;20269;-72
2023/04/01 13:46:46;;;;;;;4.25;3.42;;;;;;;;;;5021468;28;20184;-73
2023/04/01 13:49:37;;;;;;;3.97;3.58;;;;;;;;;;5024304;28;20553;-74
2023/04/01 13:52:02;;;;;;;3.42;3.05;;;;;;;;;;5027145;28;20190;-74
2023/04/01 13:54:52;;;;;;;5.20;3.80;;;;;;;;;;5015616;28;20194;-72
2023/04/01 13:57:54;;;;;;;3.22;2.92;;;;;;;;;;5029583;28;20189;-78
2023/04/01 14:00:44;;;;;;;3.72;3.28;;;;;;;;;;5017966;28;20216;-75
2023/04/01 14:03:28;;;;;;;3.42;3.08;;;;;;;;;;5022734;28;20652;-72
2023/04/01 14:06:15;;;;;;;3.53;3.20;;;;;;;;;;5027288;28;20672;-73
2023/04/01 14:08:52;;;;;;;3.97;3.58;;;;;;;;;;5023888;28;20346;-74
2023/04/01 14:11:45;;;;;;;5.18;4.20;;;;;;;;;;5027510;28;20194;-73
2023/04/01 14:14:48;;;;;;;5.03;4.53;;;;;;;;;;5021443;28;20278;-73
2023/04/01 14:17:44;;;;;;;5.88;4.70;;;;;;;;;;5019285;28;20698;-73
2023/04/01 14:20:37;;;;;;;4.90;4.05;;;;;;;;;;5013650;28;20497;-73
2023/04/01 14:23:12;;;;;;;5.07;4.20;;;;;;;;;;5031740;28;20205;-72
2023/04/01 14:26:24;;;;;;;3.50;3.20;;;;;;;;;;5016916;28;20198;-73
2023/04/01 14:28:59;;;;;;;4.20;3.53;;;;;;;;;;5007368;28;20222;-73
2023/04/01 14:31:58;;;;;;;4.20;3.35;;;;;;;;;;5019635;28;20197;-74
2023/04/01 14:34:40;;;;;;;4.60;2.45;;;;;;;;;;5021437;28;20214;-74
2023/04/01 14:37:39;;;;;;;2.63;2.42;;;;;;;;;;5024849;28;20213;-74
2023/04/01 14:40:39;;;;;;;2.67;2.47;;;;;;;;;;5026613;28;20193;-74
2023/04/01 14:43:16;;;;;;;2.40;2.20;;;;;;;;;;5026797;28;20280;-75
2023/04/01 14:46:16;;;;;;;3.72;2.90;;;;;;;;;;5025208;28;20186;-75
2023/04/01 14:49:00;;;;;;;3.53;3.08;;;;;;;;;;5013527;28;20187;-74
2023/04/01 14:51:37;;;;;;;4.35;3.10;;;;;;;;;;5022967;28;20217;-73
2023/04/01 14:54:22;;;;;;;3.45;2.90;;;;;;;;;;5026902;28;20259;-75
2023/04/01 14:57:03;;;;;;;4.60;2.78;;;;;;;;;;5017587;28;20300;-73
2023/04/01 14:59:29;;;;;;;3.42;2.83;;;;;;;;;;5008744;28;20199;-75
2023/04/01 15:02:01;;;;;;;3.80;3.47;;;;;;;;;;5009692;28;20214;-78
2023/04/01 15:04:55;;;;;;;4.32;3.58;;;;;;;;;;5006554;28;20670;-74
2023/04/01 15:07:51;;;;;;;5.13;4.63;;;;;;;;;;5006689;28;20227;-75
2023/04/01 15:10:42;;;;;;;4.78;4.28;;;;;;;;;;5011523;28;20186;-73
2023/04/01 15:13:28;;;;;;;6.97;5.03;;;;;;;;;;5033907;28;20634;-76
2023/04/01 15:16:18;;;;;;;7.97;6.78;;;;;;;;;;5027797;28;20548;-73
2023/04/01 15:19:06;;;;;;;8.63;7.47;;;;;;;;;;5018284;28;20879;-74
2023/04/01 15:21:59;;;;;;;9.10;7.75;;;;;;;;;;5016361;28;20263;-76
2023/04/01 15:24:35;;;;;;;8.77;7.55;;;;;;;;;;5013542;28;20598;-75
2023/04/01 15:27:14;;;;;;;9.23;8.30;;;;;;;;;;5024297;28;20186;-79
2023/04/01 15:30:08;;;;;;;8.85;7.25;;;;;;;;;;4995773;28;20330;-76
2023/04/01 15:33:17;;;;;;;9.05;8.15;;;;;;;;;;5017423;28;20696;-80
2023/04/01 15:35:58;;;;;;;9.40;7.78;;;;;;;;;;5008340;28;20210;-80
2023/04/01 15:38:57;;;;;;;8.15;7.35;;;;;;;;;;5015924;28;20201;-77
2023/04/01 15:41:47;;;;;;;8.65;7.75;;;;;;;;;;5007952;28;20194;-78
2023/04/01 15:44:46;;;;;;;7.95;7.15;;;;;;;;;;5028425;28;20197;-81
2023/04/01 15:47:24;;;;;;;8.50;7.60;;;;;;;;;;5023963;28;20194;-78
2023/04/01 15:50:05;;;;;;;9.15;8.13;;;;;;;;;;5032593;28;20231;-78
2023/04/01 15:53:03;;;;;;;8.55;7.65;;;;;;;;;;5022019;28;20194;-78